Tulelake, CA

7:55 AM PDT on August 29, 2014 (GMT -0700)
KLAMATH NWR | Change Station
CLOSE
Current Station
Personal Weather Station
Location: Tulelake, CA
Elevation: 4412 ft
Nearby Weather Stations

Elev 4412 ft 41.95 °N, 121.58 °W | Updated 8 minutes ago

Partly Cloudy
Partly Cloudy
36.0 °F
Feels Like 36 °F
N
2.0
Wind Variable Wind from SSE

Today
High -- | Low -- °F
--% Chance of Precip.
Yesterday
High -- | Low -- °F
Precip. -- in
6:28 AM 7:44 PM
Waxing Crescent, 14% visible
Pressure 29.99 in
Visibility 10.0 miles
Clouds Clear
Windchill 36 °F
Dew Point 30 °F
Humidity 79%
Rainfall -999.00 in
Snow Depth Not available.
UV 0 out of 12
Pollen 6.50 out of 12
Air Quality Not available.
Flu Activity Not available.
METAR KLMT 291353Z 00000KT 10SM CLR 10/07 A3009 RMK AO2 SLP153 T01000072

More Conditions Fewer Conditions

Pressure 29.99 in
Visibility 10.0 miles
Clouds Clear
Windchill 36 °F
Dew Point 30 °F
Humidity 79%
Rainfall -999.00 in
Snow Depth Not available.
UV 0 out of 12
Pollen 6.50 out of 12
Air Quality Not available.
Flu Activity Not available.
METAR KLMT 291353Z 00000KT 10SM CLR 10/07 A3009 RMK AO2 SLP153 T01000072

More Conditions Fewer Conditions

10-Day Weather Forecast

Almanac

Astronomy

Aug. 29, 2014 Rise Set
Actual Time 6:28 AM PDT 7:44 PM PDT
Civil Twilight 5:59 AM PDT 8:12 PM PDT
Nautical Twilight 5:25 AM PDT 8:47 PM PDT
Astronomical Twilight 4:48 AM PDT 9:23 PM PDT
Moon 10:27 AM PDT 9:40 PM PDT
Length of Visible Light 14h 13m
Length of Day
13h 15m
Tomorrow will be 2m 41s shorter.
Waxing Crescent, 14% of the Moon is Illuminated
Today
Waxing Crescent
Sep 2
First Quarter
Sep 8
Full
Sep 15
Last Quarter
Sep 24
New

Today's Extremes

State Highs State Lows

Community

WunderPhotos

Upload Photos

1,748,258 photos uploaded!

Nearby

Snow Depth

Station Depth Elevation
Crowder Flat 0 in 5100 ft
Adin Mountain 1 in 6200 ft
Cedar Pass 0 in 7100 ft
Independence Creek 0 in 6500 ft
CSS Lab 2 in 6900 ft

Earthquake Activity

City Distance Mag. Time & Date
Lakeview, Oregon 93 miles 2.5 5:31 AM PDT
2014-08-29
Lakeview, Oregon 94 miles 2.6 5:07 AM PDT
2014-08-29
Lakeview, Oregon 94 miles 3.1 2:47 AM PDT
2014-08-29
Lakeview, Oregon 94 miles 3.8 1:46 AM PDT
2014-08-29
Minimum magnitude displayed is 2.5.

Coastal Water Temperatures

Place Temperature
No Stations Reporting

Nearby Weather Stations